Time;durP1;ratioP1;P1;durP2;ratioP2;P2;SDS_P1;SDS_P2;PMS_P1;PMS_P2;Temp;Humidity;BMP_temperature;BMP_pressure;BME280_temperature;BME280_humidity;BME280_pressure;Samples;Min_cycle;Max_cycle;Signal;HPM_P1;HPM_P2
2022/10/18 00:00:50;;;;;;;50.28;28.65;;;;;;;9.71;95.63;101823.69;5029252;28;20037;-63
2022/10/18 00:03:16;;;;;;;46.50;27.75;;;;;;;9.82;95.61;101852.50;5028992;28;20041;-63
2022/10/18 00:05:41;;;;;;;45.20;28.02;;;;;;;9.73;95.91;101843.19;5029063;28;20022;-64
2022/10/18 00:08:06;;;;;;;52.08;28.60;;;;;;;9.77;95.59;101857.28;5029292;28;20124;-64
2022/10/18 00:10:32;;;;;;;43.50;26.58;;;;;;;9.67;95.54;101832.00;5028754;28;20072;-63
2022/10/18 00:12:57;;;;;;;44.20;27.00;;;;;;;9.62;95.50;101826.91;5028996;28;20037;-63
2022/10/18 00:15:23;;;;;;;43.90;26.40;;;;;;;9.57;95.78;101814.75;5029049;28;20041;-63
2022/10/18 00:17:48;;;;;;;40.00;25.33;;;;;;;9.63;95.67;101833.13;5029271;28;20033;-63
2022/10/18 00:20:14;;;;;;;41.83;25.40;;;;;;;9.61;95.54;101833.19;5029356;28;20485;-63
2022/10/18 00:22:40;;;;;;;38.60;25.25;;;;;;;9.66;95.62;101838.28;5029155;28;20387;-63
2022/10/18 00:25:07;;;;;;;45.08;26.52;;;;;;;9.54;95.59;101814.94;5027999;28;20103;-63
2022/10/18 00:27:34;;;;;;;36.25;25.05;;;;;;;9.59;95.37;101826.22;5029053;28;20042;-63
2022/10/18 00:29:59;;;;;;;41.38;26.20;;;;;;;9.52;95.84;101815.03;5027872;28;20048;-64
2022/10/18 00:32:25;;;;;;;43.72;26.98;;;;;;;9.56;95.79;101823.72;5028457;28;20364;-63
2022/10/18 00:34:51;;;;;;;49.55;29.95;;;;;;;9.55;96.34;101825.56;5028666;28;20030;-63
2022/10/18 00:37:17;;;;;;;43.22;27.17;;;;;;;9.46;96.02;101818.06;5027524;28;20068;-64
2022/10/18 00:39:43;;;;;;;47.00;29.23;;;;;;;9.52;96.18;101825.75;5029077;28;20024;-63
2022/10/18 00:42:15;;;;;;;44.95;29.23;;;;;;;9.50;96.99;101813.38;5028723;28;20029;-64
2022/10/18 00:44:41;;;;;;;48.72;28.23;;;;;;;9.48;96.82;101816.13;5029414;28;20369;-63
2022/10/18 00:47:09;;;;;;;43.42;27.73;;;;;;;9.47;97.01;101810.88;5029936;28;20045;-64
2022/10/18 00:49:38;;;;;;;39.42;25.52;;;;;;;9.48;96.76;101823.34;5032392;28;20354;-63
2022/10/18 00:52:04;;;;;;;35.50;24.73;;;;;;;9.37;96.65;101797.19;5032289;28;20723;-63
2022/10/18 00:54:32;;;;;;;37.40;24.42;;;;;;;9.42;96.52;101816.53;5032232;28;20104;-63
2022/10/18 00:56:58;;;;;;;38.58;25.92;;;;;;;9.36;96.93;101803.50;5031300;28;20037;-64
2022/10/18 00:59:24;;;;;;;38.92;23.73;;;;;;;9.39;96.41;101810.47;5032082;28;20056;-64
2022/10/18 01:01:50;;;;;;;39.25;23.83;;;;;;;9.37;96.68;101813.25;5032298;28;20456;-64
2022/10/18 01:04:18;;;;;;;35.90;23.77;;;;;;;9.23;96.87;101798.00;5031935;28;20083;-63
2022/10/18 01:07:00;;;;;;;31.40;22.88;;;;;;;9.31;96.21;101810.94;5031970;28;20503;-63
2022/10/18 01:09:51;;;;;;;36.58;23.58;;;;;;;9.31;96.26;101810.09;5016453;28;20037;-63
2022/10/18 01:12:29;;;;;;;34.00;22.80;;;;;;;9.28;96.56;101808.44;5032036;28;20619;-63
2022/10/18 01:15:03;;;;;;;34.40;24.13;;;;;;;9.25;96.11;101804.13;5032151;28;20044;-63
2022/10/18 01:17:56;;;;;;;35.38;23.15;;;;;;;9.26;96.11;101811.19;5030872;28;20044;-64
2022/10/18 01:20:45;;;;;;;40.20;25.02;;;;;;;9.21;96.75;101809.75;5030039;28;20060;-63
2022/10/18 01:23:15;;;;;;;35.10;24.02;;;;;;;9.19;96.41;101801.81;5032343;28;20636;-64
2022/10/18 01:25:55;;;;;;;38.40;23.45;;;;;;;9.18;96.62;101801.91;5030472;28;20140;-63
2022/10/18 01:28:44;;;;;;;40.38;23.85;;;;;;;9.19;96.88;101798.25;5030301;28;20272;-64
2022/10/18 01:31:17;;;;;;;33.33;22.20;;;;;;;9.11;96.64;101789.81;5031755;28;20037;-63
2022/10/18 01:33:47;;;;;;;35.97;23.00;;;;;;;9.14;96.36;101795.00;5030170;28;20570;-63
2022/10/18 01:36:20;;;;;;;37.38;23.08;;;;;;;9.05;96.57;101780.34;5031696;28;20052;-64
2022/10/18 01:38:48;;;;;;;33.53;23.15;;;;;;;9.05;96.54;101784.81;5031578;28;20041;-64
2022/10/18 01:41:15;;;;;;;33.63;22.17;;;;;;;9.04;96.59;101783.09;5031589;28;20038;-63
2022/10/18 01:43:42;;;;;;;30.77;21.02;;;;;;;8.91;96.69;101774.06;5031452;28;20071;-64
2022/10/18 01:46:10;;;;;;;34.83;23.92;;;;;;;8.98;96.65;101795.03;5031659;28;20538;-63
2022/10/18 01:48:39;;;;;;;37.10;22.90;;;;;;;8.86;96.91;101768.97;5031559;28;20090;-63
2022/10/18 01:51:04;;;;;;;37.67;22.60;;;;;;;8.95;96.87;101791.66;5029957;28;20064;-63
2022/10/18 01:53:32;;;;;;;34.47;22.50;;;;;;;8.94;96.78;101795.31;5031555;28;20026;-64
2022/10/18 01:56:11;;;;;;;33.60;23.10;;;;;;;8.91;96.95;101787.44;5031585;28;20484;-63
2022/10/18 01:59:11;;;;;;;36.42;23.80;;;;;;;8.88;96.97;101784.94;5030693;28;20029;-63
2022/10/18 02:01:43;;;;;;;34.70;22.73;;;;;;;8.87;96.81;101785.91;5030816;28;20770;-64
2022/10/18 02:04:24;;;;;;;37.22;23.70;;;;;;;8.84;97.27;101781.56;5031230;28;20030;-64
2022/10/18 02:06:57;;;;;;;35.60;25.27;;;;;;;8.84;97.13;101780.72;5030993;28;20037;-63
2022/10/18 02:09:40;;;;;;;39.28;26.55;;;;;;;8.73;97.25;101772.44;5030570;28;20051;-63
2022/10/18 02:12:09;;;;;;;42.33;25.27;;;;;;;8.74;96.90;101766.16;5017768;28;20112;-63
2022/10/18 02:14:35;;;;;;;36.60;24.50;;;;;;;8.68;96.57;101758.47;5029701;28;20419;-64
2022/10/18 02:17:04;;;;;;;36.22;24.92;;;;;;;8.68;96.66;101756.66;5030859;28;20547;-63
2022/10/18 02:19:43;;;;;;;41.95;24.77;;;;;;;8.70;97.16;101764.59;5030918;28;20113;-63
2022/10/18 02:22:11;;;;;;;34.70;23.40;;;;;;;8.66;96.73;101768.38;5031054;28;20044;-74
2022/10/18 02:24:41;;;;;;;37.22;24.77;;;;;;;8.67;96.68;101770.97;5030992;28;20396;-74
2022/10/18 02:27:08;;;;;;;42.55;25.10;;;;;;;8.62;96.81;101774.88;5030986;28;20064;-74
2022/10/18 02:29:33;;;;;;;38.13;24.13;;;;;;;8.60;97.19;101772.28;5029819;28;20039;-74
2022/10/18 02:32:07;;;;;;;36.17;24.17;;;;;;;8.60;97.85;101776.75;5031191;28;20037;-74
2022/10/18 02:34:41;;;;;;;33.70;24.42;;;;;;;8.53;97.44;101764.69;5032157;28;20423;-74
2022/10/18 02:37:09;;;;;;;34.17;23.60;;;;;;;8.55;98.14;101770.81;5031635;28;20088;-74
2022/10/18 02:39:39;;;;;;;37.00;23.17;;;;;;;8.53;97.84;101776.25;5031168;28;20037;-75
2022/10/18 02:42:05;;;;;;;36.00;23.40;;;;;;;8.45;97.00;101761.59;5029727;28;20080;-74
2022/10/18 02:44:35;;;;;;;35.88;24.10;;;;;;;8.42;97.04;101767.13;5030912;28;20543;-74
2022/10/18 02:47:01;;;;;;;37.08;22.85;;;;;;;8.45;97.34;101766.94;5029548;28;20044;-74
2022/10/18 02:49:27;;;;;;;32.55;23.70;;;;;;;8.42;97.16;101767.13;5029375;28;20030;-74
2022/10/18 02:51:52;;;;;;;35.40;21.98;;;;;;;8.40;97.42;101769.88;5029646;28;20128;-74
2022/10/18 02:54:17;;;;;;;34.88;24.33;;;;;;;8.39;97.15;101777.97;5027763;28;20047;-74
2022/10/18 02:56:43;;;;;;;30.50;22.17;;;;;;;8.38;97.56;101774.44;5029441;28;20064;-74
2022/10/18 02:59:09;;;;;;;39.80;23.33;;;;;;;8.36;97.53;101776.34;5029668;28;20041;-74
2022/10/18 03:01:35;;;;;;;39.35;22.73;;;;;;;8.33;97.22;101776.50;5029372;28;20437;-74
2022/10/18 03:04:01;;;;;;;35.75;22.67;;;;;;;8.34;97.37;101777.34;5028158;28;20087;-63
2022/10/18 03:06:27;;;;;;;34.45;22.83;;;;;;;8.22;97.57;101756.66;5028025;28;20079;-64
2022/10/18 03:08:52;;;;;;;32.85;23.45;;;;;;;8.20;97.22;101761.19;5029160;28;20041;-63
2022/10/18 03:11:18;;;;;;;32.38;22.30;;;;;;;8.27;97.21;101775.97;5028718;28;20038;-63
2022/10/18 03:13:44;;;;;;;35.75;23.90;;;;;;;8.26;97.20;101776.94;5029320;28;20163;-63
2022/10/18 03:16:09;;;;;;;35.45;22.05;;;;;;;8.21;96.76;101768.25;5029674;28;20028;-63
2022/10/18 03:18:34;;;;;;;33.35;23.25;;;;;;;8.15;96.96;101760.56;5029254;28;20101;-63
2022/10/18 03:21:05;;;;;;;32.00;21.98;;;;;;;8.16;97.20;101765.00;5028373;28;20140;-63
2022/10/18 03:23:30;;;;;;;29.95;21.30;;;;;;;8.20;96.90;101772.75;5029739;28;20055;-63
2022/10/18 03:25:56;;;;;;;35.50;22.00;;;;;;;8.17;97.31;101778.28;5029594;28;20048;-63
2022/10/18 03:28:21;;;;;;;41.10;23.35;;;;;;;8.18;97.60;101779.09;5029301;28;20112;-64
2022/10/18 03:30:46;;;;;;;36.92;23.33;;;;;;;8.15;97.83;101774.81;5029723;28;20021;-63
2022/10/18 03:33:12;;;;;;;42.60;24.45;;;;;;;8.08;97.79;101767.19;5029139;28;20033;-63
2022/10/18 03:35:37;;;;;;;41.85;23.40;;;;;;;8.12;97.31;101777.63;5028402;28;20036;-63
2022/10/18 03:38:03;;;;;;;40.92;23.42;;;;;;;8.04;97.45;101762.97;5029503;28;20091;-63
2022/10/18 03:40:28;;;;;;;40.67;23.40;;;;;;;8.04;97.64;101765.66;5029362;28;20024;-63
2022/10/18 03:42:53;;;;;;;45.20;24.05;;;;;;;8.08;98.26;101780.56;5029166;28;20041;-63
2022/10/18 03:45:19;;;;;;;46.42;24.08;;;;;;;7.99;97.37;101757.00;5029459;28;20517;-63
2022/10/18 03:47:44;;;;;;;31.90;22.35;;;;;;;7.93;97.44;101752.03;5029491;28;20076;-63
2022/10/18 03:50:10;;;;;;;35.15;23.05;;;;;;;7.98;97.22;101769.53;5029287;28;20026;-63
2022/10/18 03:52:38;;;;;;;37.55;25.45;;;;;;;7.97;97.79;101762.44;5027469;28;20037;-63
2022/10/18 03:55:03;;;;;;;36.22;24.70;;;;;;;7.86;97.83;101750.59;5027970;28;20059;-63
2022/10/18 03:57:29;;;;;;;35.75;24.13;;;;;;;7.84;97.31;101749.84;5028803;28;20037;-63
2022/10/18 03:59:54;;;;;;;36.45;24.35;;;;;;;7.91;97.85;101775.28;5028918;28;20021;-63
2022/10/18 04:02:20;;;;;;;41.47;24.45;;;;;;;7.82;97.31;101746.38;5019542;28;20025;-63
2022/10/18 04:04:45;;;;;;;37.45;25.15;;;;;;;7.86;97.07;101759.50;5021359;28;20029;-64
2022/10/18 04:07:11;;;;;;;39.28;24.63;;;;;;;7.84;97.66;101763.19;5016812;28;20113;-64
2022/10/18 04:09:36;;;;;;;37.97;24.80;;;;;;;7.81;97.58;101764.22;5019372;28;20065;-64
2022/10/18 04:12:02;;;;;;;37.45;25.23;;;;;;;7.74;97.21;101741.44;5021164;28;20037;-63
2022/10/18 04:14:27;;;;;;;37.28;24.83;;;;;;;7.78;97.63;101750.16;5018658;28;20756;-63
2022/10/18 04:16:52;;;;;;;35.38;24.08;;;;;;;7.77;97.46;101746.63;5019764;28;20096;-63
2022/10/18 04:19:18;;;;;;;41.30;25.75;;;;;;;7.78;97.96;101755.50;5022029;28;20033;-63
2022/10/18 04:21:43;;;;;;;40.95;26.17;;;;;;;7.78;97.82;101760.84;5019034;28;20118;-63
2022/10/18 04:24:09;;;;;;;38.20;24.73;;;;;;;7.71;97.33;101748.78;5022622;28;20132;-63
2022/10/18 04:26:34;;;;;;;37.85;25.45;;;;;;;7.72;97.58;101747.81;5019886;28;20037;-63
2022/10/18 04:29:00;;;;;;;36.80;22.20;;;;;;;7.70;97.68;101744.38;5024035;28;20045;-64
2022/10/18 04:31:25;;;;;;;38.10;23.48;;;;;;;7.47;97.72;101704.66;5021988;28;20043;-63
2022/10/18 04:33:51;;;;;;;39.17;24.33;;;;;;;7.66;98.12;101742.78;5019645;28;20029;-63
2022/10/18 04:36:16;;;;;;;41.40;24.48;;;;;;;7.67;97.66;101755.22;5022727;28;20108;-64
2022/10/18 04:38:41;;;;;;;46.42;23.98;;;;;;;7.62;98.22;101746.59;5030189;28;20021;-63
2022/10/18 04:41:07;;;;;;;52.40;26.58;;;;;;;7.57;98.03;101749.50;5021029;28;20028;-63
2022/10/18 04:43:32;;;;;;;45.20;24.17;;;;;;;7.59;97.97;101750.28;5022754;28;20029;-63
2022/10/18 04:45:58;;;;;;;46.20;23.65;;;;;;;7.56;98.04;101746.91;5023286;28;20029;-63
2022/10/18 04:48:23;;;;;;;38.88;23.35;;;;;;;7.52;98.38;101734.66;5026499;28;20075;-63
2022/10/18 04:50:50;;;;;;;44.38;24.30;;;;;;;7.56;98.70;101754.91;5022876;28;20452;-63
2022/10/18 04:53:16;;;;;;;44.10;24.58;;;;;;;7.46;98.75;101743.00;5018039;28;20053;-64
2022/10/18 04:55:44;;;;;;;65.80;26.00;;;;;;;7.45;98.39;101746.63;5017164;28;20131;-64
2022/10/18 04:58:09;;;;;;;54.65;25.10;;;;;;;7.53;97.84;101760.41;5031872;28;20234;-63
2022/10/18 05:00:36;;;;;;;49.63;25.48;;;;;;;7.45;97.85;101746.63;5031671;28;20018;-64
2022/10/18 05:03:01;;;;;;;48.78;25.88;;;;;;;7.44;96.86;101750.19;5031812;28;20029;-63
2022/10/18 05:05:27;;;;;;;45.42;25.08;;;;;;;7.45;97.03;101751.94;5031945;28;20029;-63
2022/10/18 05:07:52;;;;;;;41.95;24.73;;;;;;;7.39;97.35;101739.78;5024147;28;20044;-64
2022/10/18 05:10:17;;;;;;;49.30;24.80;;;;;;;7.30;97.57;101731.38;5032079;28;20044;-64
2022/10/18 05:12:43;;;;;;;45.60;25.10;;;;;;;7.42;97.97;101746.78;5030397;28;20041;-63
2022/10/18 05:15:09;;;;;;;54.42;24.98;;;;;;;7.44;97.94;101756.41;5032439;28;20029;-63
2022/10/18 05:17:35;;;;;;;54.95;25.27;;;;;;;7.33;98.34;101731.22;5031920;28;20110;-63
2022/10/18 05:20:00;;;;;;;46.85;26.05;;;;;;;7.44;98.18;101748.41;5032100;28;20534;-63
2022/10/18 05:22:26;;;;;;;51.35;24.83;;;;;;;7.43;98.80;101751.16;5032073;28;20033;-64
2022/10/18 05:24:51;;;;;;;59.83;26.45;;;;;;;7.42;98.54;101742.31;5031802;28;20044;-64
2022/10/18 05:27:17;;;;;;;66.22;26.55;;;;;;;7.27;99.26;101715.53;5032061;28;20049;-64
2022/10/18 05:29:42;;;;;;;71.95;26.90;;;;;;;7.30;99.14;101724.25;5030839;28;20078;-64
2022/10/18 05:32:08;;;;;;;51.38;25.52;;;;;;;7.44;99.91;101747.53;5031092;28;20038;-64
2022/10/18 05:34:33;;;;;;;63.35;27.45;;;;;;;7.45;100.00;101749.28;5031686;28;20075;-64
2022/10/18 05:36:59;;;;;;;83.15;27.88;;;;;;;7.44;100.00;101751.06;5031985;28;20502;-64
2022/10/18 05:39:25;;;;;;;54.83;27.02;;;;;;;7.44;100.00;101747.53;5031673;28;20021;-64
2022/10/18 05:41:51;;;;;;;64.55;28.73;;;;;;;7.49;100.00;101748.16;5031583;28;20346;-64
2022/10/18 05:44:16;;;;;;;65.53;27.52;;;;;;;7.50;100.00;101745.41;5032123;28;20468;-64
2022/10/18 05:46:41;;;;;;;61.22;27.13;;;;;;;7.45;100.00;101738.59;5031317;28;20098;-64
2022/10/18 05:49:10;;;;;;;67.50;25.60;;;;;;;7.55;100.00;101746.06;5030319;28;20047;-64
2022/10/18 05:51:36;;;;;;;73.57;28.95;;;;;;;7.53;100.00;101744.38;5031314;28;20052;-63
2022/10/18 05:54:01;;;;;;;66.95;27.63;;;;;;;7.60;100.00;101740.44;5030554;28;20145;-64
2022/10/18 05:56:27;;;;;;;63.20;26.52;;;;;;;7.60;100.00;101743.13;5031427;28;20064;-64
2022/10/18 05:58:52;;;;;;;56.40;28.17;;;;;;;7.63;100.00;101734.94;5030268;28;20063;-64
2022/10/18 06:01:18;;;;;;;57.60;28.25;;;;;;;7.64;100.00;101736.69;5023315;28;20018;-64
2022/10/18 06:03:43;;;;;;;58.67;27.63;;;;;;;7.73;100.00;101752.19;5020121;28;20063;-64
2022/10/18 06:06:11;;;;;;;62.85;27.42;;;;;;;7.73;100.00;101744.19;5031021;28;20032;-64
2022/10/18 06:08:38;;;;;;;72.75;28.83;;;;;;;7.80;100.00;101754.47;5034223;28;20392;-64
2022/10/18 06:11:07;;;;;;;60.03;27.73;;;;;;;7.86;100.00;101755.94;5047744;28;20538;-64
2022/10/18 06:13:33;;;;;;;66.72;29.17;;;;;;;7.86;100.00;101747.94;5035034;28;20053;-64
2022/10/18 06:15:58;;;;;;;65.90;28.25;;;;;;;7.92;100.00;101752.94;5041031;28;20026;-64
2022/10/18 06:18:24;;;;;;;56.33;28.33;;;;;;;7.92;100.00;101743.13;5045442;28;20021;-64
2022/10/18 06:20:56;;;;;;;60.55;27.92;;;;;;;8.06;100.00;101751.25;5036438;28;20040;-64
2022/10/18 06:23:21;;;;;;;65.90;27.73;;;;;;;8.04;100.00;101734.47;5037466;28;20553;-63
2022/10/18 06:25:46;;;;;;;50.53;27.48;;;;;;;8.19;100.00;101746.97;5044844;28;20123;-64
2022/10/18 06:28:12;;;;;;;40.10;27.58;;;;;;;8.29;100.00;101748.19;5030747;28;20056;-64
2022/10/18 06:30:37;;;;;;;57.15;28.63;;;;;;;8.37;100.00;101750.44;5036449;28;20024;-64
2022/10/18 06:33:03;;;;;;;42.17;27.30;;;;;;;8.50;100.00;101747.00;5041257;28;20111;-64
2022/10/18 06:35:28;;;;;;;45.40;27.38;;;;;;;8.57;100.00;101745.72;5037137;28;20033;-64
2022/10/18 06:37:53;;;;;;;43.10;27.95;;;;;;;8.73;100.00;101749.22;5046748;28;20025;-64
2022/10/18 06:40:19;;;;;;;37.60;23.70;;;;;;;8.90;100.00;101759.81;5032699;28;20035;-64
2022/10/18 06:42:46;;;;;;;38.45;24.35;;;;;;;8.94;100.00;101744.47;5042883;28;20041;-64
2022/10/18 06:45:11;;;;;;;33.03;22.17;;;;;;;9.21;100.00;101754.41;5039679;28;20380;-64
2022/10/18 06:47:37;;;;;;;29.13;20.83;;;;;;;9.42;100.00;101746.03;5032580;28;20095;-64
2022/10/18 06:50:02;;;;;;;28.25;19.85;;;;;;;9.60;100.00;101744.91;5027231;28;20037;-64
2022/10/18 06:52:28;;;;;;;31.48;20.38;;;;;;;9.80;100.00;101737.38;5030773;28;20037;-63
2022/10/18 06:54:53;;;;;;;30.30;19.38;;;;;;;10.06;100.00;101750.03;5033737;28;20078;-63
2022/10/18 06:57:20;;;;;;;34.47;20.20;;;;;;;10.36;99.10;101752.59;5037864;28;20149;-63
2022/10/18 06:59:45;;;;;;;27.75;18.67;;;;;;;10.54;98.07;101738.84;5046902;28;20476;-64
2022/10/18 07:02:16;;;;;;;35.92;18.67;;;;;;;10.83;96.37;101753.03;5043890;28;20086;-64
2022/10/18 07:04:41;;;;;;;24.35;16.80;;;;;;;11.04;93.33;101747.13;5043527;28;20055;-63
2022/10/18 07:07:07;;;;;;;30.55;16.45;;;;;;;11.21;89.50;101735.22;5039585;28;20481;-64
2022/10/18 07:09:32;;;;;;;22.58;15.13;;;;;;;11.51;87.31;101746.53;5030264;28;20117;-64
2022/10/18 07:11:58;;;;;;;19.83;13.23;;;;;;;11.74;84.82;101758.44;5043183;28;20033;-64
2022/10/18 07:14:23;;;;;;;21.52;14.25;;;;;;;11.94;84.28;101755.19;5045029;28;20074;-63
2022/10/18 07:16:49;;;;;;;19.08;13.00;;;;;;;12.11;82.21;101744.09;5045261;28;20075;-63
2022/10/18 07:19:15;;;;;;;18.77;13.20;;;;;;;12.35;79.42;101739.66;5046293;28;20031;-63
2022/10/18 07:21:40;;;;;;;18.98;12.57;;;;;;;12.60;78.06;101739.56;5034247;28;20014;-64
2022/10/18 07:24:06;;;;;;;19.00;12.13;;;;;;;13.02;73.99;101753.44;5032529;28;20037;-64
2022/10/18 07:26:33;;;;;;;19.10;12.25;;;;;;;13.41;73.39;101739.63;5041005;28;20041;-63
2022/10/18 07:29:10;;;;;;;17.70;11.98;;;;;;;14.09;70.91;101736.88;5037748;28;20052;-64
2022/10/18 07:31:37;;;;;;;27.30;13.00;;;;;;;15.13;65.23;101736.34;5033466;28;20057;-63
2022/10/18 07:34:06;;;;;;;16.75;11.18;;;;;;;16.11;61.26;101736.75;5033653;28;20117;-64
2022/10/18 07:36:31;;;;;;;16.48;11.63;;;;;;;17.07;57.19;101727.03;5043424;28;20017;-64
2022/10/18 07:38:58;;;;;;;17.45;11.93;;;;;;;17.61;55.07;101722.72;5036570;28;20082;-64
2022/10/18 07:41:24;;;;;;;17.35;11.10;;;;;;;18.19;52.81;101728.88;5034545;28;20441;-64
2022/10/18 07:43:51;;;;;;;18.33;11.77;;;;;;;18.71;51.31;101722.75;5045365;28;20436;-64
2022/10/18 07:46:18;;;;;;;16.60;12.27;;;;;;;19.21;49.95;101729.38;5032617;28;20029;-64
2022/10/18 07:48:44;;;;;;;12.75;10.65;;;;;;;19.80;48.64;101724.09;5042014;28;20033;-64
2022/10/18 07:51:10;;;;;;;15.57;10.85;;;;;;;20.22;46.90;101720.66;5039720;28;20035;-64
2022/10/18 07:53:35;;;;;;;14.15;9.75;;;;;;;20.39;46.06;101720.56;5033045;28;20204;-64
2022/10/18 07:56:04;;;;;;;13.98;10.18;;;;;;;20.33;45.73;101717.63;5047837;28;20028;-64
2022/10/18 07:58:30;;;;;;;18.08;10.50;;;;;;;19.80;46.79;101726.81;5039281;28;20094;-64
2022/10/18 08:00:56;;;;;;;15.93;10.60;;;;;;;19.25;48.35;101713.63;5044763;28;20029;-64
2022/10/18 08:03:21;;;;;;;19.80;10.27;;;;;;;18.77;49.87;101713.13;5035655;28;20040;-65
2022/10/18 08:05:52;;;;;;;17.38;10.73;;;;;;;18.39;50.61;101708.78;5035005;28;20021;-64
2022/10/18 08:08:18;;;;;;;15.93;10.48;;;;;;;18.01;51.27;101706.19;5035140;28;20057;-64
2022/10/18 08:10:44;;;;;;;15.60;9.68;;;;;;;17.64;52.29;101697.19;5034957;28;20033;-64
2022/10/18 08:13:09;;;;;;;15.80;9.60;;;;;;;17.35;53.25;101685.50;5035834;28;20542;-64
2022/10/18 08:15:34;;;;;;;14.52;8.90;;;;;;;17.18;53.74;101703.34;5035627;28;20077;-64
2022/10/18 08:18:00;;;;;;;11.85;8.88;;;;;;;16.94;54.11;101693.94;5035852;28;20083;-64
2022/10/18 08:20:25;;;;;;;10.82;8.07;;;;;;;16.83;53.99;101696.78;5035715;28;20022;-64
2022/10/18 08:22:51;;;;;;;15.63;8.55;;;;;;;16.72;54.45;101699.59;5035934;28;20036;-64
2022/10/18 08:25:16;;;;;;;10.82;7.47;;;;;;;16.57;54.13;101699.16;5034751;28;20037;-64
2022/10/18 08:27:42;;;;;;;13.70;7.60;;;;;;;16.46;54.23;101688.44;5035594;28;20863;-64
2022/10/18 08:30:08;;;;;;;14.52;8.38;;;;;;;16.42;54.67;101696.94;5035690;28;20782;-64
2022/10/18 08:32:34;;;;;;;13.07;8.68;;;;;;;16.37;55.24;101689.22;5035814;28;20079;-64
2022/10/18 08:34:59;;;;;;;13.73;8.48;;;;;;;16.35;55.30;101693.09;5032653;28;20041;-64
2022/10/18 08:37:25;;;;;;;15.60;8.13;;;;;;;16.32;55.67;101696.06;5034878;28;20025;-64
2022/10/18 08:39:50;;;;;;;11.93;8.32;;;;;;;16.30;55.94;101682.66;5034219;28;20025;-64
2022/10/18 08:42:34;;;;;;;12.27;8.13;;;;;;;16.31;55.72;101688.94;5035157;28;20033;-64
2022/10/18 08:45:00;;;;;;;15.77;9.02;;;;;;;16.33;55.75;101676.09;5035646;28;20504;-64
2022/10/18 08:47:34;;;;;;;14.75;8.13;;;;;;;16.42;55.33;101669.88;5034159;28;20080;-64
2022/10/18 08:50:06;;;;;;;10.10;6.90;;;;;;;16.48;55.50;101677.47;5034265;28;20495;-64
2022/10/18 08:52:43;;;;;;;12.13;7.35;;;;;;;16.57;54.57;101674.75;5035429;28;20032;-64
2022/10/18 08:55:21;;;;;;;16.35;8.02;;;;;;;16.59;54.47;101666.50;5032046;28;20025;-64
2022/10/18 08:57:48;;;;;;;12.57;8.30;;;;;;;16.78;53.79;101671.94;5031330;28;20088;-64
2022/10/18 09:00:23;;;;;;;14.80;7.07;;;;;;;16.93;53.70;101665.13;5049554;28;20040;-63
2022/10/18 09:02:48;;;;;;;15.45;7.13;;;;;;;17.12;52.79;101671.38;5038454;28;20041;-64
2022/10/18 09:05:47;;;;;;;10.15;6.53;;;;;;;17.39;52.46;101662.50;5035294;28;20029;-64
2022/10/18 09:08:53;;;;;;;10.68;7.07;;;;;;;17.80;50.91;101654.84;5028769;28;20030;-64
2022/10/18 09:11:34;;;;;;;13.38;7.30;;;;;;;18.54;49.66;101657.50;5044760;28;20038;-64
2022/10/18 09:14:36;;;;;;;14.38;7.18;;;;;;;21.01;44.79;101648.31;5030092;28;20175;-64
2022/10/18 09:17:25;;;;;;;10.00;7.00;;;;;;;24.09;38.56;101630.69;5032106;28;20364;-64
2022/10/18 09:20:06;;;;;;;13.85;6.65;;;;;;;26.36;34.19;101614.59;5032036;28;20056;-64
2022/10/18 09:23:26;;;;;;;13.00;6.65;;;;;;;28.08;30.90;101617.09;5031534;28;20033;-65
2022/10/18 09:26:13;;;;;;;9.45;5.82;;;;;;;29.75;28.67;101610.91;5009079;28;20745;-65
2022/10/18 09:29:05;;;;;;;12.77;6.25;;;;;;;30.87;26.83;101608.47;5029994;28;20047;-64
2022/10/18 09:31:43;;;;;;;11.98;5.95;;;;;;;31.46;25.98;101614.78;5031130;28;20128;-65
2022/10/18 09:34:19;;;;;;;9.02;5.40;;;;;;;32.23;24.75;101611.59;5047076;28;20443;-64
2022/10/18 09:36:45;;;;;;;9.13;5.50;;;;;;;32.41;24.26;101591.19;5046796;28;20029;-64
2022/10/18 09:39:15;;;;;;;12.65;5.95;;;;;;;32.75;23.99;101603.25;5031814;28;20083;-64
2022/10/18 09:41:49;;;;;;;11.07;5.28;;;;;;;33.02;23.39;101582.06;5031540;28;20025;-65
2022/10/18 09:44:20;;;;;;;11.75;4.80;;;;;;;33.20;23.09;101592.97;5046833;28;20056;-65
2022/10/18 09:46:54;;;;;;;10.13;5.90;;;;;;;33.50;23.11;101588.75;5031502;28;20490;-64
2022/10/18 09:49:27;;;;;;;12.90;5.35;;;;;;;33.72;22.73;101586.03;5031494;28;20087;-66
2022/10/18 09:51:53;;;;;;;8.88;5.13;;;;;;;34.21;22.15;101571.97;5031807;28;20029;-65
2022/10/18 09:54:43;;;;;;;9.85;4.63;;;;;;;33.99;21.69;101575.88;5031654;28;20025;-65
2022/10/18 09:57:16;;;;;;;10.48;4.60;;;;;;;34.32;21.28;101571.00;5031567;28;20072;-64
2022/10/18 09:59:46;;;;;;;8.57;4.28;;;;;;;34.90;20.89;101569.44;5031372;28;20040;-64
2022/10/18 10:02:16;;;;;;;9.75;4.53;;;;;;;34.91;20.45;101566.38;5046400;28;20400;-64
2022/10/18 10:04:42;;;;;;;8.43;4.38;;;;;;;34.76;20.68;101571.81;5031055;28;20026;-65
2022/10/18 10:07:12;;;;;;;6.43;4.95;;;;;;;34.15;21.18;101569.41;5046640;28;20045;-64
2022/10/18 10:09:48;;;;;;;6.55;4.43;;;;;;;33.33;22.08;101568.41;5031246;28;20416;-64
2022/10/18 10:12:40;;;;;;;7.82;4.30;;;;;;;32.05;23.32;101572.06;5031214;28;20634;-64
2022/10/18 10:15:19;;;;;;;4.30;3.90;;;;;;;31.31;23.55;101560.88;5044412;28;20033;-66
2022/10/18 10:18:14;;;;;;;10.02;4.93;;;;;;;29.99;24.52;101560.22;5045952;28;20029;-64
2022/10/18 10:20:56;;;;;;;7.78;5.10;;;;;;;29.06;25.26;101563.25;5021056;28;20045;-64
2022/10/18 10:23:24;;;;;;;10.68;4.53;;;;;;;28.28;26.58;101548.84;5030834;28;20029;-66
2022/10/18 10:26:02;;;;;;;13.93;5.35;;;;;;;27.30;27.61;101548.28;5030954;28;20057;-66
2022/10/18 10:28:33;;;;;;;6.22;4.95;;;;;;;26.28;28.51;101546.84;5030459;28;20045;-66
2022/10/18 10:31:23;;;;;;;6.93;4.60;;;;;;;25.51;29.33;101548.16;5029347;28;20025;-64
2022/10/18 10:34:04;;;;;;;7.35;4.90;;;;;;;24.85;30.07;101550.56;5045810;28;20076;-65
2022/10/18 10:36:31;;;;;;;9.38;4.90;;;;;;;24.20;31.44;101546.06;5030431;28;20033;-66
2022/10/18 10:39:04;;;;;;;8.75;4.47;;;;;;;23.61;32.27;101536.19;5029295;28;20043;-64
2022/10/18 10:41:30;;;;;;;7.07;5.15;;;;;;;23.32;32.38;101538.06;5030307;28;20029;-64
2022/10/18 10:43:55;;;;;;;7.40;4.97;;;;;;;22.81;32.92;101525.19;5029368;28;20013;-64
2022/10/18 10:46:22;;;;;;;5.40;4.35;;;;;;;22.54;34.07;101526.63;5029121;28;20033;-65
2022/10/18 10:48:54;;;;;;;9.65;4.38;;;;;;;22.40;34.65;101532.81;5030323;28;20029;-65
2022/10/18 10:51:27;;;;;;;7.38;4.68;;;;;;;22.15;34.96;101523.94;5030113;28;20049;-65
2022/10/18 10:53:58;;;;;;;6.47;4.50;;;;;;;21.90;35.30;101505.13;5045783;28;20051;-65
2022/10/18 10:56:30;;;;;;;8.00;4.97;;;;;;;21.77;34.92;101515.78;5030425;28;20033;-65
2022/10/18 10:59:00;;;;;;;7.45;4.80;;;;;;;21.63;35.56;101509.16;5030333;28;20033;-64
2022/10/18 11:01:31;;;;;;;7.68;4.57;;;;;;;21.50;35.66;101505.28;5028700;28;20091;-64
2022/10/18 11:04:00;;;;;;;6.72;4.60;;;;;;;21.37;36.05;101491.31;5045428;28;20916;-65
2022/10/18 11:06:35;;;;;;;5.22;3.90;;;;;;;21.39;34.86;101508.38;5030084;28;20025;-65
2022/10/18 11:09:05;;;;;;;5.85;3.92;;;;;;;21.22;35.16;101485.75;5045514;28;20084;-65
2022/10/18 11:11:35;;;;;;;9.05;4.28;;;;;;;21.24;35.74;101496.47;5029921;28;20022;-65
2022/10/18 11:14:16;;;;;;;6.82;3.70;;;;;;;21.21;35.30;101496.84;5045256;28;20478;-66
2022/10/18 11:16:50;;;;;;;6.10;3.78;;;;;;;21.14;35.01;101495.81;5030046;28;20207;-65
2022/10/18 11:19:38;;;;;;;8.35;3.55;;;;;;;21.05;34.29;101492.28;5030101;28;20036;-65
2022/10/18 11:22:08;;;;;;;5.28;3.63;;;;;;;21.01;34.44;101482.75;5030170;28;20040;-64
2022/10/18 11:24:35;;;;;;;7.32;3.80;;;;;;;20.99;33.94;101484.78;5028462;28;20029;-65
2022/10/18 11:27:17;;;;;;;5.80;3.15;;;;;;;20.91;34.14;101481.19;5044942;28;20025;-66